Time;durP1;ratioP1;P1;durP2;ratioP2;P2;SDS_P1;SDS_P2;PMS_P1;PMS_P2;Temp;Humidity;BMP_temperature;BMP_pressure;BME280_temperature;BME280_humidity;BME280_pressure;Samples;Min_cycle;Max_cycle;Signal;HPM_P1;HPM_P2
2024/04/11 00:00:18;;;;;;;2.40;1.10;;;7.20;99.90;;;7.56;71.55;97907.00;2359810;56;26157;-74
2024/04/11 00:02:44;;;;;;;1.17;0.80;;;7.20;99.90;;;7.49;71.80;97917.00;2360300;56;26137;-76
2024/04/11 00:05:11;;;;;;;1.03;0.73;;;7.10;99.90;;;7.58;70.56;97915.00;2360225;56;26646;-74
2024/04/11 00:07:37;;;;;;;1.43;1.20;;;7.00;99.90;;;7.33;72.01;97912.00;2359519;56;26167;-76
2024/04/11 00:10:05;;;;;;;1.57;1.03;;;7.00;99.90;;;7.43;71.66;97910.00;2360029;56;26188;-76
2024/04/11 00:12:31;;;;;;;1.47;0.97;;;7.10;99.90;;;7.47;71.92;97906.00;2359707;56;26795;-75
2024/04/11 00:14:58;;;;;;;2.60;1.30;;;7.20;99.90;;;7.44;72.14;97900.00;2359769;56;27269;-76
2024/04/11 00:17:25;;;;;;;2.07;0.97;;;7.30;99.90;;;7.66;71.64;97908.00;2359927;56;26708;-76
2024/04/11 00:19:52;;;;;;;5.40;1.20;;;7.30;99.90;;;7.58;70.97;97915.00;2359752;56;26759;-75
2024/04/11 00:22:19;;;;;;;2.83;1.17;;;7.00;99.90;;;7.49;70.60;97915.00;2359943;56;26121;-74
2024/04/11 00:24:48;;;;;;;2.10;1.13;;;6.90;99.90;;;7.41;70.71;97915.00;2359971;56;26681;-73
2024/04/11 00:27:15;;;;;;;3.13;0.93;;;6.80;99.90;;;7.21;71.24;97911.00;2359898;56;27373;-76
2024/04/11 00:29:42;;;;;;;0.70;0.70;;;6.80;99.90;;;7.00;72.11;97913.00;2359985;56;26120;-74
2024/04/11 00:32:09;;;;;;;1.37;1.00;;;6.80;99.90;;;7.04;72.69;97915.00;2360316;56;27264;-74
2024/04/11 00:34:38;;;;;;;3.37;0.97;;;6.90;99.90;;;7.15;72.96;97915.00;2360093;56;27335;-75
2024/04/11 00:37:05;;;;;;;1.20;0.87;;;6.90;99.90;;;7.28;72.09;97921.00;2362212;56;26134;-76
2024/04/11 00:39:31;;;;;;;2.53;1.03;;;7.20;99.90;;;7.61;71.66;97915.00;2359835;56;26649;-76
2024/04/11 00:41:58;;;;;;;1.47;0.97;;;7.50;99.90;;;7.80;71.13;97915.00;2359777;56;26189;-76
2024/04/11 00:44:29;;;;;;;1.83;1.10;;;7.70;99.90;;;7.81;70.99;97921.00;2359812;56;26228;-76
2024/04/11 00:46:57;;;;;;;3.03;1.40;;;7.60;99.90;;;7.75;71.30;97917.00;2359951;56;26209;-76
2024/04/11 00:49:24;;;;;;;2.33;1.30;;;7.70;99.90;;;7.89;70.67;97920.00;2363109;56;26113;-75
2024/04/11 00:51:52;;;;;;;2.27;1.13;;;7.70;99.90;;;7.81;70.89;97911.00;2363547;56;26109;-75
2024/04/11 00:54:19;;;;;;;3.00;1.33;;;7.70;99.90;;;7.87;70.81;97922.00;2362724;56;26184;-76
2024/04/11 00:56:46;;;;;;;2.00;1.07;;;7.80;99.90;;;8.05;70.07;97917.00;2363067;56;26172;-74
2024/04/11 00:59:16;;;;;;;8.30;1.07;;;7.90;99.90;;;8.13;69.54;97919.00;2363536;56;26069;-76
2024/04/11 01:01:44;;;;;;;2.60;1.03;;;7.80;99.90;;;8.00;69.83;97922.00;2363176;56;26579;-77
2024/04/11 01:04:11;;;;;;;7.67;1.33;;;7.80;99.90;;;8.08;69.51;97922.00;2363476;56;26074;-75
2024/04/11 01:07:07;;;;;;;4.20;0.93;;;7.80;99.90;;;8.08;69.28;97927.00;2363007;56;26148;-74
2024/04/11 01:09:38;;;;;;;2.83;1.00;;;7.60;99.90;;;7.98;68.36;97916.00;2363700;56;26632;-76
2024/04/11 01:12:07;;;;;;;2.37;1.20;;;7.20;99.90;;;7.63;69.12;97926.00;2363813;56;26673;-74
2024/04/11 01:14:34;;;;;;;1.13;0.80;;;7.00;99.90;;;7.39;69.85;97928.00;2363573;56;26497;-75
2024/04/11 01:17:00;;;;;;;1.47;1.17;;;6.80;99.90;;;7.21;69.97;97923.00;2363092;56;26112;-74
2024/04/11 01:19:27;;;;;;;1.27;0.90;;;6.70;99.90;;;7.14;70.34;97917.00;2363314;56;26082;-75
2024/04/11 01:21:55;;;;;;;3.30;0.80;;;6.60;99.90;;;6.91;71.45;97914.00;2363650;56;26065;-74
2024/04/11 01:24:22;;;;;;;1.97;1.00;;;6.60;99.90;;;6.94;71.52;97911.00;2362207;56;26558;-77
2024/04/11 01:26:49;;;;;;;1.70;1.10;;;6.60;99.90;;;6.82;72.99;97909.00;2363270;56;26068;-75
2024/04/11 01:29:15;;;;;;;1.53;1.00;;;6.70;99.90;;;7.02;72.22;97907.00;2362901;56;26638;-74
2024/04/11 01:31:44;;;;;;;1.73;1.13;;;6.70;99.90;;;7.04;71.51;97913.00;2359854;56;26125;-74
2024/04/11 01:34:11;;;;;;;2.97;1.27;;;6.70;99.90;;;6.99;71.95;97919.00;2363867;56;26126;-76
2024/04/11 01:36:37;;;;;;;0.77;0.67;;;6.70;99.90;;;7.05;71.50;97920.00;2362896;56;26439;-76
2024/04/11 01:39:09;;;;;;;3.47;0.93;;;6.40;99.90;;;6.87;71.31;97918.00;2363372;56;26605;-75
2024/04/11 01:41:45;;;;;;;2.57;1.07;;;6.30;99.90;;;6.66;71.29;97915.00;2363094;56;26591;-74
2024/04/11 01:44:12;;;;;;;1.43;0.70;;;6.00;99.90;;;6.44;71.67;97922.00;2363169;56;26267;-74
2024/04/11 01:46:39;;;;;;;2.00;1.23;;;6.00;99.90;;;6.39;72.77;97925.00;2363213;56;26670;-76
2024/04/11 01:49:05;;;;;;;2.03;1.00;;;6.20;99.90;;;6.53;72.93;97920.00;2363425;56;26537;-75
2024/04/11 01:51:32;;;;;;;3.63;1.10;;;6.10;99.90;;;6.36;73.13;97925.00;2362961;56;26721;-74
2024/04/11 01:53:58;;;;;;;2.03;0.93;;;6.20;99.90;;;6.51;72.21;97938.00;2362949;56;26821;-75
2024/04/11 01:56:25;;;;;;;3.10;1.03;;;6.20;99.90;;;6.48;71.46;97932.00;2359501;56;27207;-74
2024/04/11 01:58:55;;;;;;;1.57;0.90;;;5.90;99.90;;;6.29;71.35;97940.00;2359224;56;26176;-75
2024/04/11 02:01:21;;;;;;;2.97;1.20;;;5.60;99.90;;;5.96;72.21;97937.00;2359739;56;26125;-73
2024/04/11 02:03:48;;;;;;;1.07;0.87;;;5.60;99.90;;;6.00;72.87;97939.00;2359419;56;26217;-75
2024/04/11 02:06:15;;;;;;;0.80;0.70;;;5.70;99.90;;;6.04;73.24;97942.00;2359710;56;26700;-74
2024/04/11 02:08:41;;;;;;;1.83;1.10;;;5.70;99.90;;;5.96;73.20;97940.00;2358931;56;26196;-76
2024/04/11 02:11:08;;;;;;;1.13;0.70;;;5.70;99.90;;;5.89;73.60;97941.00;2359474;56;26137;-75
2024/04/11 02:13:36;;;;;;;1.07;0.80;;;5.80;99.90;;;6.16;73.52;97941.00;2359432;56;26189;-75
2024/04/11 02:16:03;;;;;;;1.87;1.17;;;5.70;99.90;;;6.13;73.17;97936.00;2360025;56;26157;-75
2024/04/11 02:18:32;;;;;;;1.17;0.93;;;5.80;99.90;;;6.08;73.29;97933.00;2360211;56;26085;-74
2024/04/11 02:20:59;;;;;;;2.30;0.90;;;5.90;99.90;;;6.23;73.50;97935.00;2360230;56;26425;-76
2024/04/11 02:23:26;;;;;;;1.30;0.77;;;5.90;99.90;;;6.24;73.59;97929.00;2360001;56;26125;-76
2024/04/11 02:25:53;;;;;;;1.00;0.90;;;5.80;99.90;;;6.18;72.67;97939.00;2360072;56;26556;-76
2024/04/11 02:28:19;;;;;;;0.80;0.80;;;5.70;99.90;;;6.01;73.65;97934.00;2359951;56;26571;-75
2024/04/11 02:30:46;;;;;;;3.60;0.90;;;5.70;99.90;;;6.05;73.42;97942.00;2359722;56;26665;-76
2024/04/11 02:33:12;;;;;;;4.20;1.23;;;5.60;99.90;;;5.83;73.75;97936.00;2359631;56;26161;-76
2024/04/11 02:35:39;;;;;;;1.73;1.23;;;5.70;99.90;;;5.91;74.27;97938.00;2359523;56;26581;-74
2024/04/11 02:38:06;;;;;;;6.97;1.00;;;5.90;99.90;;;6.16;74.85;97936.00;2359225;56;26593;-74
2024/04/11 02:40:33;;;;;;;5.40;1.23;;;6.20;99.90;;;6.39;75.09;97936.00;2359398;56;26193;-76
2024/04/11 02:43:00;;;;;;;2.80;1.40;;;6.30;99.90;;;6.55;74.74;97941.00;2359758;56;26537;-76
2024/04/11 02:45:27;;;;;;;2.37;1.37;;;6.50;99.90;;;6.63;74.49;97943.00;2359635;56;26160;-75
2024/04/11 02:47:53;;;;;;;1.90;1.03;;;6.60;99.90;;;6.77;74.08;97941.00;2359649;56;26112;-76
2024/04/11 02:50:23;;;;;;;7.33;1.20;;;6.50;99.90;;;6.83;71.61;97943.00;2358926;56;26122;-74
2024/04/11 02:52:50;;;;;;;1.20;0.90;;;6.40;99.90;;;6.77;70.28;97941.00;2358434;56;26149;-76
2024/04/11 02:55:17;;;;;;;1.80;1.03;;;6.20;99.90;;;6.51;71.10;97949.00;2358978;56;26168;-75
2024/04/11 02:57:44;;;;;;;1.70;0.80;;;6.10;99.90;;;6.38;71.10;97955.00;2359363;56;26132;-76
2024/04/11 03:00:11;;;;;;;1.77;1.07;;;5.80;99.90;;;6.15;71.54;97963.00;2359661;56;26165;-75
2024/04/11 03:02:38;;;;;;;0.77;0.77;;;5.50;99.90;;;5.92;72.11;97966.00;2359364;56;26168;-74
2024/04/11 03:05:06;;;;;;;0.60;0.60;;;5.40;99.90;;;5.74;72.62;97970.00;2359267;56;27745;-73
2024/04/11 03:07:32;;;;;;;0.90;0.67;;;5.20;99.90;;;5.59;72.85;97965.00;2359988;56;26096;-76
2024/04/11 03:09:59;;;;;;;3.33;2.00;;;5.20;99.90;;;5.64;73.06;97967.00;2359713;56;26208;-74
2024/04/11 03:12:25;;;;;;;1.70;0.80;;;5.20;99.90;;;5.55;73.44;97975.00;2359874;56;26211;-75
2024/04/11 03:14:52;;;;;;;10.87;1.10;;;5.40;99.90;;;5.60;74.39;97972.00;2359830;56;27295;-75
2024/04/11 03:17:19;;;;;;;2.30;1.00;;;5.40;99.90;;;5.61;74.22;97974.00;2360070;56;26101;-76
2024/04/11 03:19:45;;;;;;;1.07;0.80;;;5.40;99.90;;;5.75;74.23;97975.00;2360171;56;26145;-76
2024/04/11 03:22:12;;;;;;;1.30;0.80;;;5.50;99.90;;;5.83;73.47;97973.00;2360067;56;26189;-75
2024/04/11 03:24:39;;;;;;;1.80;1.20;;;5.50;99.90;;;5.85;73.02;97973.00;2359565;56;26161;-76
2024/04/11 03:27:07;;;;;;;2.37;0.87;;;5.50;99.90;;;5.75;73.22;97980.00;2359526;56;26756;-75
2024/04/11 03:29:34;;;;;;;1.87;1.20;;;5.50;99.90;;;5.69;73.07;97978.00;2359854;56;26195;-75
2024/04/11 03:32:01;;;;;;;1.00;0.80;;;5.50;99.90;;;5.80;72.76;97984.00;2359787;56;27004;-74
2024/04/11 03:34:28;;;;;;;2.03;1.10;;;5.50;99.90;;;5.76;72.43;97987.00;2359313;56;27200;-76
2024/04/11 03:36:55;;;;;;;1.37;0.90;;;5.40;99.90;;;5.52;73.64;97985.00;2359212;56;26626;-74
2024/04/11 03:39:21;;;;;;;3.60;1.13;;;5.30;99.90;;;5.70;72.19;97988.00;2359417;56;26226;-74
2024/04/11 03:41:52;;;;;;;2.00;0.93;;;5.30;99.90;;;5.47;72.07;97987.00;2359312;56;26760;-76
2024/04/11 03:44:19;;;;;;;1.70;0.87;;;5.20;99.90;;;5.44;72.73;97988.00;2358854;56;26567;-74
2024/04/11 03:46:47;;;;;;;3.10;0.90;;;5.20;99.90;;;5.48;73.30;97992.00;2358979;56;27603;-75
2024/04/11 03:49:14;;;;;;;2.90;1.20;;;5.10;99.90;;;5.42;73.76;97996.00;2358808;56;27291;-74
2024/04/11 03:51:41;;;;;;;6.57;1.10;;;5.00;99.90;;;5.32;74.14;97993.00;2358900;56;26234;-74
2024/04/11 03:54:11;;;;;;;2.30;1.13;;;5.00;99.90;;;5.27;75.54;97998.00;2358981;56;27302;-75
2024/04/11 03:56:38;;;;;;;2.50;1.20;;;5.10;99.90;;;5.37;76.17;98009.00;2359322;56;26148;-75
2024/04/11 03:59:06;;;;;;;2.70;1.07;;;5.30;99.90;;;5.49;76.81;98014.00;2359348;56;27655;-74
2024/04/11 04:01:33;;;;;;;12.10;1.20;;;5.50;99.90;;;5.73;76.41;98005.00;2359703;56;26126;-75
2024/04/11 04:04:03;;;;;;;2.97;1.37;;;5.50;99.90;;;5.83;74.82;98010.00;2359500;56;26638;-75
2024/04/11 04:06:33;;;;;;;1.40;0.90;;;5.40;99.90;;;5.70;74.19;98004.00;2359568;56;26180;-75
2024/04/11 04:09:07;;;;;;;1.73;1.10;;;5.30;99.90;;;5.50;74.71;98001.00;2359027;56;26105;-76
2024/04/11 04:11:36;;;;;;;1.07;0.90;;;5.30;99.90;;;5.52;75.01;97998.00;2359656;56;26152;-76
2024/04/11 04:14:08;;;;;;;3.07;1.23;;;5.30;99.90;;;5.52;74.16;98003.00;2359250;56;26152;-75
2024/04/11 04:16:35;;;;;;;1.73;0.93;;;5.30;99.90;;;5.60;73.43;98013.00;2357537;56;26132;-74
2024/04/11 04:19:02;;;;;;;2.87;1.13;;;5.20;99.90;;;5.56;73.03;98016.00;2358629;56;26258;-76
2024/04/11 04:21:29;;;;;;;2.47;1.47;;;5.10;99.90;;;5.42;73.68;98009.00;2358473;56;26734;-74
2024/04/11 04:24:02;;;;;;;2.17;1.10;;;5.20;99.90;;;5.42;74.33;98014.00;2362299;56;26172;-76
2024/04/11 04:26:30;;;;;;;1.30;0.77;;;5.20;99.90;;;5.41;74.92;98010.00;2362613;56;26125;-76
2024/04/11 04:29:00;;;;;;;2.50;1.30;;;5.30;99.90;;;5.56;74.14;98010.00;2362111;56;26396;-74
2024/04/11 04:31:30;;;;;;;2.10;1.10;;;5.40;99.90;;;5.59;74.55;98006.00;2362071;56;26148;-75
2024/04/11 04:34:03;;;;;;;2.13;1.17;;;5.40;99.90;;;5.70;74.34;98017.00;2361537;56;26093;-75
2024/04/11 04:36:40;;;;;;;2.57;1.23;;;5.70;99.90;;;6.10;74.67;98013.00;2361627;56;26113;-75
2024/04/11 04:39:07;;;;;;;1.87;1.10;;;6.00;99.90;;;6.23;75.50;98023.00;2361958;56;26077;-77
2024/04/11 04:41:34;;;;;;;2.87;1.20;;;5.80;99.90;;;6.19;72.72;98025.00;2361746;56;26113;-76
2024/04/11 04:44:02;;;;;;;1.53;0.87;;;5.80;99.90;;;6.01;72.56;98028.00;2361868;56;26173;-76
2024/04/11 04:46:33;;;;;;;1.00;0.90;;;5.70;99.90;;;6.14;71.81;98024.00;2362521;56;26195;-74
2024/04/11 04:49:03;;;;;;;1.27;1.10;;;5.60;99.90;;;6.10;72.15;98037.00;2362204;56;26097;-75
2024/04/11 04:51:36;;;;;;;1.57;1.00;;;5.70;99.90;;;6.19;72.01;98033.00;2360927;56;26200;-75
2024/04/11 04:54:03;;;;;;;2.03;0.87;;;5.70;99.90;;;6.05;73.05;98035.00;2360928;56;26610;-74
2024/04/11 04:56:32;;;;;;;5.30;0.80;;;5.70;99.90;;;6.18;73.63;98035.00;2358494;56;26124;-75
2024/04/11 04:58:59;;;;;;;1.93;1.20;;;5.90;99.90;;;6.25;74.06;98035.00;2359699;56;26113;-76
2024/04/11 05:01:26;;;;;;;1.47;1.17;;;6.10;99.90;;;6.42;74.04;98038.00;2358285;56;26228;-76
2024/04/11 05:03:55;;;;;;;1.67;0.80;;;6.30;99.90;;;6.75;72.87;98036.00;2359245;56;26175;-75
2024/04/11 05:06:22;;;;;;;6.23;1.20;;;6.40;99.90;;;6.90;72.27;98036.00;2358867;56;26125;-73
2024/04/11 05:08:53;;;;;;;2.47;0.90;;;6.50;99.90;;;6.84;72.05;98029.00;2360036;56;26503;-76
2024/04/11 05:11:21;;;;;;;1.17;0.87;;;6.50;99.90;;;6.84;72.19;98043.00;2358750;56;26432;-76
2024/04/11 05:13:50;;;;;;;1.17;0.90;;;6.60;99.90;;;7.02;72.20;98040.00;2361541;56;26120;-76
2024/04/11 05:16:20;;;;;;;4.47;1.13;;;6.60;99.90;;;7.16;71.71;98052.00;2360650;56;26141;-74
2024/04/11 05:18:49;;;;;;;4.37;1.37;;;6.70;99.90;;;7.29;72.33;98055.00;2360552;56;26133;-75
2024/04/11 05:21:18;;;;;;;3.97;1.10;;;6.90;99.90;;;7.46;72.23;98051.00;2360905;56;26812;-78
2024/04/11 05:23:45;;;;;;;1.83;1.10;;;7.00;99.90;;;7.55;72.02;98044.00;2360337;56;26113;-76
2024/04/11 05:26:23;;;;;;;1.90;0.87;;;7.10;99.90;;;7.69;71.60;98045.00;2360645;56;26065;-77
2024/04/11 05:28:54;;;;;;;1.77;1.10;;;7.30;99.90;;;7.68;71.18;98049.00;2360819;56;26122;-77
2024/04/11 05:31:25;;;;;;;3.50;1.33;;;7.30;99.90;;;7.69;71.88;98048.00;2359286;56;26121;-74
2024/04/11 05:34:00;;;;;;;6.50;1.53;;;7.40;99.90;;;8.00;71.26;98053.00;2359234;56;26129;-74
2024/04/11 05:36:28;;;;;;;1.37;1.00;;;7.70;99.90;;;8.23;71.27;98061.00;2359933;56;26057;-77
2024/04/11 05:38:55;;;;;;;2.80;0.90;;;7.80;99.90;;;8.31;70.34;98061.00;2361759;56;26502;-75
2024/04/11 05:41:22;;;;;;;2.20;1.10;;;7.80;99.90;;;8.24;70.17;98065.00;2359231;56;26180;-77
2024/04/11 05:43:49;;;;;;;1.63;1.00;;;7.70;99.90;;;8.21;70.11;98071.00;2359722;56;26193;-77
2024/04/11 05:46:19;;;;;;;1.73;0.97;;;7.70;99.90;;;8.07;71.01;98061.00;2360674;56;27181;-76
2024/04/11 05:48:52;;;;;;;1.40;0.87;;;7.80;99.90;;;8.42;70.63;98073.00;2361037;56;26057;-75
2024/04/11 05:51:21;;;;;;;3.93;1.37;;;8.00;99.90;;;8.71;70.35;98073.00;2361678;56;26688;-76
2024/04/11 05:53:48;;;;;;;1.70;1.30;;;8.40;99.90;;;8.98;69.11;98070.00;2360237;56;26188;-76
2024/04/11 05:56:16;;;;;;;1.97;1.30;;;8.60;99.90;;;9.15;69.06;98073.00;2360615;56;26642;-73
2024/04/11 05:58:43;;;;;;;1.97;1.40;;;9.00;99.90;;;9.58;68.39;98075.00;2360116;56;26086;-74
2024/04/11 06:01:13;;;;;;;1.33;1.13;;;9.30;99.90;;;9.91;66.77;98074.00;2359200;56;26129;-78
2024/04/11 06:03:46;;;;;;;7.53;1.70;;;9.50;99.90;;;10.26;66.19;98075.00;2359545;56;26618;-77
2024/04/11 06:06:14;;;;;;;5.93;1.70;;;9.80;99.90;;;10.51;66.92;98078.00;2358670;56;26227;-78
2024/04/11 06:08:44;;;;;;;3.83;2.10;;;10.10;99.90;;;10.77;65.85;98072.00;2359602;56;26128;-78
2024/04/11 06:11:11;;;;;;;2.87;1.57;;;10.20;99.90;;;10.96;64.91;98081.00;2360334;56;26556;-76
2024/04/11 06:13:39;;;;;;;3.07;1.60;;;10.40;99.90;;;11.18;63.83;98080.00;2358499;56;26114;-78
2024/04/11 06:16:06;;;;;;;2.87;1.43;;;10.50;99.90;;;11.31;64.03;98077.00;2359612;56;26511;-75
2024/04/11 06:18:36;;;;;;;3.43;1.60;;;10.70;99.90;;;11.55;62.69;98082.00;2359788;56;26720;-78
2024/04/11 06:21:07;;;;;;;5.50;1.83;;;10.90;99.90;;;11.70;62.66;98072.00;2361165;56;26645;-75
2024/04/11 06:23:35;;;;;;;4.57;1.77;;;11.00;99.90;;;11.77;62.36;98076.00;2361002;56;26093;-75
2024/04/11 06:26:02;;;;;;;3.80;1.60;;;11.10;99.90;;;11.83;62.23;98072.00;2359950;56;26069;-77
2024/04/11 06:28:28;;;;;;;2.17;1.23;;;11.00;99.90;;;11.84;61.77;98073.00;2359647;56;26179;-78
2024/04/11 06:30:56;;;;;;;5.60;1.57;;;11.20;99.90;;;11.95;62.14;98073.00;2359126;56;26634;-77
2024/04/11 06:33:23;;;;;;;3.53;1.20;;;11.30;99.90;;;11.95;62.71;98077.00;2358902;56;26120;-76
2024/04/11 06:35:53;;;;;;;2.00;1.10;;;11.50;99.90;;;12.23;61.81;98083.00;2360534;56;26531;-77
2024/04/11 06:38:23;;;;;;;2.43;1.43;;;11.60;99.90;;;12.48;60.99;98083.00;2360329;56;26496;-77
2024/04/11 06:40:54;;;;;;;3.97;1.43;;;11.80;99.90;;;12.70;60.52;98087.00;2359730;56;26563;-77
2024/04/11 06:43:21;;;;;;;5.70;1.63;;;11.90;99.90;;;12.89;59.83;98083.00;2359562;56;26335;-75
2024/04/11 06:45:48;;;;;;;3.93;1.30;;;12.10;99.90;;;13.05;59.36;98082.00;2174191;56;10000228;-78
2024/04/11 06:48:18;;;;;;;2.27;1.60;;;12.20;99.90;;;13.17;59.42;98087.00;2336222;57;26123;-77
2024/04/11 06:50:47;;;;;;;5.00;1.20;;;12.40;99.90;;;13.40;58.66;98082.00;2337600;57;26178;-75
2024/04/11 06:53:17;;;;;;;6.27;1.37;;;12.50;99.90;;;13.61;58.00;98084.00;2338613;57;26222;-77
2024/04/11 06:55:49;;;;;;;5.63;1.63;;;12.60;99.90;;;13.59;57.93;98091.00;2338532;57;26234;-74
2024/04/11 06:58:22;;;;;;;3.83;1.70;;;12.60;99.90;;;13.62;57.84;98091.00;2338576;57;26615;-77
2024/04/11 07:00:59;;;;;;;1.60;1.10;;;12.70;99.90;;;13.58;57.88;98087.00;2338184;57;26552;-77
2024/04/11 07:03:29;;;;;;;2.97;1.43;;;12.70;99.90;;;13.60;57.26;98082.00;2336126;57;26453;-75
2024/04/11 07:06:09;;;;;;;5.30;1.43;;;12.80;99.90;;;13.78;57.13;98089.00;2337121;57;26722;-76
2024/04/11 07:08:38;;;;;;;6.53;1.37;;;12.90;99.90;;;13.82;57.17;98091.00;2336507;57;26162;-77
2024/04/11 07:13:55;;;;;;;7.80;1.30;;;13.10;99.20;;;14.01;55.67;98091.00;2336874;57;26718;-79
2024/04/11 07:16:29;;;;;;;5.73;1.27;;;13.30;99.70;;;14.19;56.56;98096.00;2339963;56;26222;-77
2024/04/11 07:18:56;;;;;;;8.93;1.40;;;13.50;98.80;;;14.52;54.86;98088.00;2359424;56;26125;-75
2024/04/11 07:21:30;;;;;;;4.10;1.33;;;13.70;98.40;;;14.58;54.22;98095.00;2358677;56;26136;-76
2024/04/11 07:23:58;;;;;;;3.73;1.13;;;13.70;98.00;;;14.64;53.86;98099.00;2358561;56;26096;-76
2024/04/11 07:26:30;;;;;;;3.40;1.40;;;13.80;98.20;;;14.78;54.16;98098.00;2359011;56;26743;-76
2024/04/11 07:29:03;;;;;;;9.50;1.77;;;14.20;98.30;;;15.36;53.67;98097.00;2358217;56;26431;-76
2024/04/11 07:31:36;;;;;;;3.40;1.70;;;14.50;97.90;;;15.56;53.13;98107.00;2356591;56;26615;-78
2024/04/11 07:34:03;;;;;;;11.70;1.90;;;14.70;97.10;;;15.75;51.91;98106.00;2358328;56;26082;-75
2024/04/11 07:36:32;;;;;;;9.00;1.90;;;14.80;97.30;;;15.83;52.42;98097.00;2358276;56;26159;-77
2024/04/11 07:38:59;;;;;;;13.65;1.98;;;14.90;97.20;;;15.91;52.25;98110.00;2358151;56;26940;-76
2024/04/11 07:41:44;;;;;;;7.50;1.95;;;15.00;96.80;;;15.98;51.82;98113.00;2356741;56;26985;-75
2024/04/11 07:44:17;;;;;;;2.70;1.37;;;15.10;97.10;;;16.09;52.40;98112.00;2357683;56;26245;-75
2024/04/11 07:46:45;;;;;;;6.77;1.83;;;15.30;96.20;;;16.30;50.75;98118.00;2357881;56;26081;-77
2024/04/11 07:49:26;;;;;;;2.07;1.30;;;15.40;95.50;;;16.50;49.48;98116.00;2358123;56;26886;-75
2024/04/11 07:51:56;;;;;;;3.80;1.30;;;15.60;94.50;;;16.68;47.97;98114.00;2358069;56;26549;-75
2024/04/11 07:54:23;;;;;;;2.87;1.58;;;15.70;94.70;;;16.92;48.35;98111.00;2357733;56;26125;-76
2024/04/11 07:57:08;;;;;;;2.10;0.93;;;15.90;93.90;;;17.09;47.16;98116.00;2358217;56;26093;-74
2024/04/11 07:59:34;;;;;;;5.07;1.17;;;16.10;92.90;;;17.24;45.60;98108.00;2357522;56;26188;-77
2024/04/11 08:02:01;;;;;;;19.50;1.40;;;16.00;92.50;;;17.14;45.30;98113.00;2357252;56;26626;-77
2024/04/11 08:04:27;;;;;;;4.07;1.50;;;16.10;92.20;;;17.31;44.77;98107.00;2358280;56;26729;-76
2024/04/11 08:06:54;;;;;;;2.33;1.30;;;16.20;92.30;;;17.44;44.86;98108.00;2358254;56;26112;-78
2024/04/11 08:09:21;;;;;;;5.43;1.20;;;16.40;92.00;;;17.66;44.35;98108.00;2358373;56;26070;-76
2024/04/11 08:11:47;;;;;;;2.30;1.20;;;16.70;91.70;;;18.01;43.80;98108.00;2358397;56;26216;-77
2024/04/11 08:14:14;;;;;;;4.47;1.77;;;16.80;91.60;;;17.89;44.33;98104.00;2358258;56;26133;-76
2024/04/11 08:16:41;;;;;;;4.05;1.02;;;16.80;91.20;;;18.00;43.42;98106.00;2358720;56;26128;-76
2024/04/11 08:19:09;;;;;;;3.22;1.30;;;16.90;91.00;;;18.28;43.10;98103.00;2358803;56;26647;-78
2024/04/11 08:21:36;;;;;;;1.52;1.00;;;17.10;91.00;;;18.26;43.05;98105.00;2358741;56;26573;-76
2024/04/11 08:24:03;;;;;;;2.20;1.20;;;17.20;90.20;;;18.57;41.78;98101.00;2360394;56;26163;-75
2024/04/11 08:26:32;;;;;;;2.42;1.30;;;17.10;89.70;;;18.39;41.56;98100.00;2361157;56;26129;-77
2024/04/11 08:29:00;;;;;;;2.12;1.12;;;17.20;88.80;;;18.47;40.90;98106.00;2361150;56;26109;-76
2024/04/11 08:31:30;;;;;;;7.05;1.20;;;17.20;89.10;;;18.52;41.25;98105.00;2361522;56;26141;-79
2024/04/11 08:34:00;;;;;;;1.52;0.95;;;17.30;89.60;;;18.56;41.80;98095.00;2360819;56;26113;-77
2024/04/11 08:36:31;;;;;;;1.73;1.15;;;17.30;87.10;;;18.58;40.30;98099.00;2359351;56;26161;-78
2024/04/11 08:38:58;;;;;;;2.80;1.40;;;17.40;84.90;;;18.55;38.76;98092.00;2360165;56;26725;-78
2024/04/11 08:41:26;;;;;;;5.93;1.10;;;17.40;85.10;;;18.64;39.17;98092.00;2361188;56;26531;-78
2024/04/11 08:43:56;;;;;;;2.08;0.95;;;17.30;84.70;;;18.59;39.00;98092.00;2360672;56;26533;-75
2024/04/11 08:46:22;;;;;;;4.80;1.00;;;17.40;85.40;;;18.74;39.29;98098.00;2360568;56;26101;-77
2024/04/11 08:48:50;;;;;;;1.80;1.12;;;17.50;82.60;;;18.86;37.52;98096.00;2361141;56;26074;-76
2024/04/11 08:51:21;;;;;;;1.15;0.80;;;17.80;83.60;;;19.27;38.06;98102.00;2359960;56;26070;-76
2024/04/11 08:53:54;;;;;;;2.85;1.25;;;17.90;82.50;;;19.16;37.57;98103.00;2361574;56;26073;-77
2024/04/11 08:56:31;;;;;;;6.10;1.45;;;17.90;83.30;;;19.32;38.15;98102.00;2359705;56;26141;-78
2024/04/11 08:58:58;;;;;;;5.47;1.20;;;18.10;82.70;;;19.42;37.63;98107.00;2359972;56;26370;-75
2024/04/11 09:01:25;;;;;;;1.55;0.98;;;18.10;82.60;;;19.42;37.66;98104.00;2361032;56;26201;-77
2024/04/11 09:03:52;;;;;;;1.23;0.80;;;18.30;82.80;;;19.56;37.80;98110.00;2360629;56;26164;-75
2024/04/11 09:06:24;;;;;;;2.22;0.90;;;18.30;80.80;;;19.49;36.76;98101.00;2360680;56;26531;-75
2024/04/11 09:08:56;;;;;;;1.33;1.00;;;18.30;82.80;;;19.58;38.00;98103.00;2360982;56;26144;-77
2024/04/11 09:11:27;;;;;;;1.12;0.98;;;18.40;82.10;;;19.59;37.81;98093.00;2361496;56;26507;-76
2024/04/11 09:13:58;;;;;;;1.20;0.80;;;18.50;82.10;;;19.77;37.65;98092.00;2361070;56;26189;-76
2024/04/11 09:16:27;;;;;;;3.20;1.00;;;18.50;81.20;;;19.79;37.12;98085.00;2361995;56;26542;-78
2024/04/11 09:19:10;;;;;;;2.97;0.90;;;18.60;81.30;;;19.99;37.06;98089.00;2360375;56;26247;-77
2024/04/11 09:21:46;;;;;;;3.03;1.27;;;18.70;80.40;;;20.10;36.47;98086.00;2359313;56;26180;-78
2024/04/11 09:24:18;;;;;;;2.00;1.17;;;18.80;82.00;;;20.09;37.67;98076.00;2360255;56;26069;-76
2024/04/11 09:26:46;;;;;;;0.90;0.90;;;18.90;80.30;;;20.24;36.59;98080.00;2359819;56;26782;-78
2024/04/11 09:29:14;;;;;;;2.15;0.80;;;19.00;79.60;;;20.35;36.06;98082.00;2360182;56;26760;-76
2024/04/11 09:31:42;;;;;;;0.70;0.70;;;18.90;79.40;;;20.25;36.03;98071.00;2359577;56;26152;-75
2024/04/11 09:34:13;;;;;;;2.72;1.00;;;19.00;79.50;;;20.52;36.06;98072.00;2360439;56;26145;-77
2024/04/11 09:36:52;;;;;;;0.95;0.70;;;19.20;79.60;;;20.64;35.95;98075.00;2360979;56;26112;-77
2024/04/11 09:39:45;;;;;;;2.58;0.90;;;19.30;79.40;;;20.84;35.73;98069.00;2360975;56;26070;-77
2024/04/11 09:42:19;;;;;;;2.70;1.15;;;19.40;79.30;;;20.81;35.86;98070.00;2357941;56;26657;-76
2024/04/11 09:44:52;;;;;;;2.15;0.85;;;19.40;79.10;;;20.94;35.64;98074.00;2358251;56;26196;-75
2024/04/11 09:47:28;;;;;;;1.55;1.02;;;19.50;78.60;;;21.15;35.19;98064.00;2358216;56;26244;-77
2024/04/11 09:49:59;;;;;;;1.10;0.95;;;19.80;80.40;;;21.34;36.44;98062.00;2358788;56;26113;-77
2024/04/11 09:52:30;;;;;;;5.12;0.88;;;19.90;79.80;;;21.30;36.18;98060.00;2358470;56;26097;-77
2024/04/11 09:55:02;;;;;;;1.48;0.98;;;19.90;79.50;;;21.31;36.18;98062.00;2358565;56;26073;-75
2024/04/11 09:57:31;;;;;;;1.75;0.90;;;19.90;81.00;;;21.34;36.96;98061.00;2359343;56;26121;-77
2024/04/11 09:59:57;;;;;;;3.42;1.10;;;20.00;80.00;;;21.36;36.55;98057.00;2358545;56;26069;-76
2024/04/11 10:02:28;;;;;;;2.37;1.02;;;20.00;78.50;;;21.42;35.56;98058.00;2358228;56;26113;-75
2024/04/11 10:05:04;;;;;;;0.70;0.70;;;20.30;77.60;;;21.59;35.08;98052.00;2357940;56;26101;-75
2024/04/11 10:07:43;;;;;;;2.92;1.00;;;20.30;75.80;;;21.69;33.92;98053.00;2357128;56;26108;-76
2024/04/11 10:10:25;;;;;;;1.58;0.90;;;20.10;76.00;;;21.42;34.35;98053.00;2358877;56;26133;-77
2024/04/11 10:12:52;;;;;;;5.32;1.10;;;20.20;75.60;;;21.65;33.82;98050.00;2357668;56;26143;-76
2024/04/11 10:15:21;;;;;;;1.62;1.08;;;20.30;76.60;;;21.76;34.54;98054.00;2358745;56;26104;-76
2024/04/11 10:18:08;;;;;;;1.62;1.20;;;20.40;76.30;;;21.96;34.27;98049.00;2361363;56;26109;-78
2024/04/11 10:20:59;;;;;;;0.88;0.80;;;20.50;76.80;;;22.02;34.47;98046.00;2360210;56;26487;-78
2024/04/11 10:23:28;;;;;;;1.80;1.00;;;20.60;76.60;;;22.15;34.01;98045.00;2361165;56;26355;-76
2024/04/11 10:25:56;;;;;;;5.82;1.00;;;20.70;77.40;;;22.24;34.78;98042.00;2360946;56;26165;-76
2024/04/11 10:28:38;;;;;;;2.42;0.90;;;20.90;75.40;;;22.44;33.64;98037.00;2360753;56;26113;-76
2024/04/11 10:31:17;;;;;;;6.00;1.30;;;20.80;76.10;;;22.41;34.09;98035.00;2360051;56;26058;-77
2024/04/11 10:33:58;;;;;;;5.03;1.12;;;20.90;76.70;;;22.52;34.43;98031.00;2359096;56;26124;-76
2024/04/11 10:36:32;;;;;;;2.20;1.20;;;20.80;76.80;;;22.23;34.80;98036.00;2359071;56;26180;-77
2024/04/11 10:38:59;;;;;;;1.25;0.90;;;20.90;75.50;;;22.25;34.07;98034.00;2359573;56;26509;-75